sensor_id;sensor_type;location;lat;lon;timestamp;P1;durP1;ratioP1;P2;durP2;ratioP2
22334;SDS011;11335;43.848;25.958;2022-11-21T00:00:38;20.30;;;14.70;;
22334;SDS011;11335;43.848;25.958;2022-11-21T00:03:23;23.38;;;16.38;;
22334;SDS011;11335;43.848;25.958;2022-11-21T00:06:09;22.73;;;16.17;;
22334;SDS011;11335;43.848;25.958;2022-11-21T00:08:55;22.88;;;16.30;;
22334;SDS011;11335;43.848;25.958;2022-11-21T00:11:40;22.38;;;15.75;;
22334;SDS011;11335;43.848;25.958;2022-11-21T00:14:26;23.00;;;15.98;;
22334;SDS011;11335;43.848;25.958;2022-11-21T00:17:12;20.20;;;15.27;;
22334;SDS011;11335;43.848;25.958;2022-11-21T00:19:57;25.50;;;16.30;;
22334;SDS011;11335;43.848;25.958;2022-11-21T00:22:43;21.08;;;15.32;;
22334;SDS011;11335;43.848;25.958;2022-11-21T00:25:28;24.13;;;16.83;;
22334;SDS011;11335;43.848;25.958;2022-11-21T00:28:14;27.13;;;17.83;;
22334;SDS011;11335;43.848;25.958;2022-11-21T00:31:00;25.40;;;17.23;;
22334;SDS011;11335;43.848;25.958;2022-11-21T00:33:45;27.92;;;19.08;;
22334;SDS011;11335;43.848;25.958;2022-11-21T00:36:31;29.70;;;19.13;;
22334;SDS011;11335;43.848;25.958;2022-11-21T00:39:16;29.63;;;19.67;;
22334;SDS011;11335;43.848;25.958;2022-11-21T00:42:02;30.30;;;20.95;;
22334;SDS011;11335;43.848;25.958;2022-11-21T00:44:48;33.85;;;22.38;;
22334;SDS011;11335;43.848;25.958;2022-11-21T00:47:33;32.58;;;20.73;;
22334;SDS011;11335;43.848;25.958;2022-11-21T00:50:19;30.05;;;19.52;;
22334;SDS011;11335;43.848;25.958;2022-11-21T00:53:04;35.83;;;20.80;;
22334;SDS011;11335;43.848;25.958;2022-11-21T00:55:50;38.40;;;20.88;;
22334;SDS011;11335;43.848;25.958;2022-11-21T00:58:35;38.05;;;22.77;;
22334;SDS011;11335;43.848;25.958;2022-11-21T01:01:21;37.25;;;21.65;;
22334;SDS011;11335;43.848;25.958;2022-11-21T01:04:07;38.17;;;22.33;;
22334;SDS011;11335;43.848;25.958;2022-11-21T01:06:52;35.25;;;22.75;;
22334;SDS011;11335;43.848;25.958;2022-11-21T01:09:38;36.20;;;22.13;;
22334;SDS011;11335;43.848;25.958;2022-11-21T01:12:23;37.17;;;21.60;;
22334;SDS011;11335;43.848;25.958;2022-11-21T01:15:09;38.92;;;22.05;;
22334;SDS011;11335;43.848;25.958;2022-11-21T01:17:55;30.95;;;20.30;;
22334;SDS011;11335;43.848;25.958;2022-11-21T01:20:40;29.77;;;18.58;;
22334;SDS011;11335;43.848;25.958;2022-11-21T01:23:26;27.50;;;18.35;;
22334;SDS011;11335;43.848;25.958;2022-11-21T01:26:16;29.48;;;19.17;;
22334;SDS011;11335;43.848;25.958;2022-11-21T01:29:02;26.63;;;18.23;;
22334;SDS011;11335;43.848;25.958;2022-11-21T01:31:48;26.17;;;17.65;;
22334;SDS011;11335;43.848;25.958;2022-11-21T01:34:34;26.90;;;18.50;;
22334;SDS011;11335;43.848;25.958;2022-11-21T01:37:19;24.95;;;16.92;;
22334;SDS011;11335;43.848;25.958;2022-11-21T01:40:05;25.55;;;17.73;;
22334;SDS011;11335;43.848;25.958;2022-11-21T01:46:14;24.58;;;16.55;;
22334;SDS011;11335;43.848;25.958;2022-11-21T01:54:52;24.75;;;17.38;;
22334;SDS011;11335;43.848;25.958;2022-11-21T02:00:25;22.33;;;16.10;;
22334;SDS011;11335;43.848;25.958;2022-11-21T02:03:12;21.17;;;14.75;;
22334;SDS011;11335;43.848;25.958;2022-11-21T02:05:59;19.45;;;14.00;;
22334;SDS011;11335;43.848;25.958;2022-11-21T02:08:45;19.85;;;14.38;;
22334;SDS011;11335;43.848;25.958;2022-11-21T02:11:44;21.60;;;14.90;;
22334;SDS011;11335;43.848;25.958;2022-11-21T02:14:31;22.45;;;15.50;;
22334;SDS011;11335;43.848;25.958;2022-11-21T02:17:17;24.15;;;16.08;;
22334;SDS011;11335;43.848;25.958;2022-11-21T02:20:07;25.88;;;16.05;;
22334;SDS011;11335;43.848;25.958;2022-11-21T02:25:39;26.05;;;16.88;;
22334;SDS011;11335;43.848;25.958;2022-11-21T02:28:28;27.40;;;16.73;;
22334;SDS011;11335;43.848;25.958;2022-11-21T02:31:13;25.85;;;16.30;;
22334;SDS011;11335;43.848;25.958;2022-11-21T02:33:59;24.33;;;15.38;;
22334;SDS011;11335;43.848;25.958;2022-11-21T02:36:45;24.58;;;15.65;;
22334;SDS011;11335;43.848;25.958;2022-11-21T02:39:32;24.45;;;15.43;;
22334;SDS011;11335;43.848;25.958;2022-11-21T02:42:24;25.35;;;15.35;;
22334;SDS011;11335;43.848;25.958;2022-11-21T02:45:22;23.05;;;15.02;;
22334;SDS011;11335;43.848;25.958;2022-11-21T02:48:09;24.17;;;15.48;;
22334;SDS011;11335;43.848;25.958;2022-11-21T02:50:55;21.77;;;14.77;;
22334;SDS011;11335;43.848;25.958;2022-11-21T02:53:40;24.30;;;14.85;;
22334;SDS011;11335;43.848;25.958;2022-11-21T02:56:26;23.63;;;14.57;;
22334;SDS011;11335;43.848;25.958;2022-11-21T02:59:11;23.65;;;14.15;;
22334;SDS011;11335;43.848;25.958;2022-11-21T03:01:57;26.27;;;15.48;;
22334;SDS011;11335;43.848;25.958;2022-11-21T03:04:44;27.77;;;16.10;;
22334;SDS011;11335;43.848;25.958;2022-11-21T03:07:29;27.45;;;15.48;;
22334;SDS011;11335;43.848;25.958;2022-11-21T03:10:15;34.03;;;18.95;;
22334;SDS011;11335;43.848;25.958;2022-11-21T03:13:01;37.95;;;20.00;;
22334;SDS011;11335;43.848;25.958;2022-11-21T03:15:46;43.42;;;20.40;;
22334;SDS011;11335;43.848;25.958;2022-11-21T03:18:32;38.10;;;19.83;;
22334;SDS011;11335;43.848;25.958;2022-11-21T03:21:17;44.42;;;19.60;;
22334;SDS011;11335;43.848;25.958;2022-11-21T03:24:03;32.30;;;18.90;;
22334;SDS011;11335;43.848;25.958;2022-11-21T03:26:49;41.00;;;20.65;;
22334;SDS011;11335;43.848;25.958;2022-11-21T03:29:34;41.80;;;21.42;;
22334;SDS011;11335;43.848;25.958;2022-11-21T03:32:20;39.28;;;21.88;;
22334;SDS011;11335;43.848;25.958;2022-11-21T03:35:06;32.80;;;18.67;;
22334;SDS011;11335;43.848;25.958;2022-11-21T03:37:51;32.88;;;18.45;;
22334;SDS011;11335;43.848;25.958;2022-11-21T03:40:37;28.98;;;16.58;;
22334;SDS011;11335;43.848;25.958;2022-11-21T03:43:22;29.45;;;17.02;;
22334;SDS011;11335;43.848;25.958;2022-11-21T03:46:08;29.73;;;17.45;;
22334;SDS011;11335;43.848;25.958;2022-11-21T03:48:54;30.75;;;17.98;;
22334;SDS011;11335;43.848;25.958;2022-11-21T03:51:39;29.90;;;19.02;;
22334;SDS011;11335;43.848;25.958;2022-11-21T03:54:25;30.23;;;18.20;;
22334;SDS011;11335;43.848;25.958;2022-11-21T03:57:11;27.95;;;17.95;;
22334;SDS011;11335;43.848;25.958;2022-11-21T03:59:56;30.27;;;18.83;;
22334;SDS011;11335;43.848;25.958;2022-11-21T04:02:42;28.15;;;16.25;;
22334;SDS011;11335;43.848;25.958;2022-11-21T04:05:27;22.58;;;14.18;;
22334;SDS011;11335;43.848;25.958;2022-11-21T04:08:13;23.98;;;13.20;;
22334;SDS011;11335;43.848;25.958;2022-11-21T04:10:58;21.70;;;11.48;;
22334;SDS011;11335;43.848;25.958;2022-11-21T04:13:44;21.05;;;12.20;;
22334;SDS011;11335;43.848;25.958;2022-11-21T04:16:30;18.98;;;11.88;;
22334;SDS011;11335;43.848;25.958;2022-11-21T04:19:15;17.30;;;11.95;;
22334;SDS011;11335;43.848;25.958;2022-11-21T04:22:01;16.80;;;9.98;;
22334;SDS011;11335;43.848;25.958;2022-11-21T04:24:46;18.92;;;10.98;;
22334;SDS011;11335;43.848;25.958;2022-11-21T04:27:32;16.30;;;10.32;;
22334;SDS011;11335;43.848;25.958;2022-11-21T04:30:17;22.13;;;11.60;;
22334;SDS011;11335;43.848;25.958;2022-11-21T04:33:03;17.38;;;11.70;;
22334;SDS011;11335;43.848;25.958;2022-11-21T04:35:48;18.02;;;11.13;;
22334;SDS011;11335;43.848;25.958;2022-11-21T04:38:34;24.08;;;11.77;;
22334;SDS011;11335;43.848;25.958;2022-11-21T04:41:20;24.77;;;13.13;;
22334;SDS011;11335;43.848;25.958;2022-11-21T04:44:06;21.30;;;12.57;;
22334;SDS011;11335;43.848;25.958;2022-11-21T04:46:51;19.35;;;12.10;;
22334;SDS011;11335;43.848;25.958;2022-11-21T04:49:37;21.05;;;13.27;;
22334;SDS011;11335;43.848;25.958;2022-11-21T04:52:23;24.27;;;14.35;;
22334;SDS011;11335;43.848;25.958;2022-11-21T04:55:08;27.50;;;15.00;;
22334;SDS011;11335;43.848;25.958;2022-11-21T04:57:54;20.33;;;12.10;;
22334;SDS011;11335;43.848;25.958;2022-11-21T05:00:40;19.00;;;12.27;;
22334;SDS011;11335;43.848;25.958;2022-11-21T05:03:25;24.40;;;14.73;;
22334;SDS011;11335;43.848;25.958;2022-11-21T05:06:11;19.30;;;12.80;;
22334;SDS011;11335;43.848;25.958;2022-11-21T05:08:56;20.13;;;12.88;;
22334;SDS011;11335;43.848;25.958;2022-11-21T05:11:42;16.30;;;11.10;;
22334;SDS011;11335;43.848;25.958;2022-11-21T05:14:46;18.42;;;10.65;;
22334;SDS011;11335;43.848;25.958;2022-11-21T05:17:32;19.33;;;12.00;;
22334;SDS011;11335;43.848;25.958;2022-11-21T05:20:18;19.00;;;12.00;;
22334;SDS011;11335;43.848;25.958;2022-11-21T05:23:03;19.75;;;13.32;;
22334;SDS011;11335;43.848;25.958;2022-11-21T05:25:49;20.83;;;12.75;;
22334;SDS011;11335;43.848;25.958;2022-11-21T05:28:34;19.42;;;12.30;;
22334;SDS011;11335;43.848;25.958;2022-11-21T05:31:20;17.50;;;11.30;;
22334;SDS011;11335;43.848;25.958;2022-11-21T05:34:06;22.70;;;13.27;;
22334;SDS011;11335;43.848;25.958;2022-11-21T05:36:51;19.55;;;11.27;;
22334;SDS011;11335;43.848;25.958;2022-11-21T05:39:41;21.23;;;10.75;;
22334;SDS011;11335;43.848;25.958;2022-11-21T05:42:27;20.80;;;12.27;;
22334;SDS011;11335;43.848;25.958;2022-11-21T05:45:30;17.13;;;11.00;;
22334;SDS011;11335;43.848;25.958;2022-11-21T05:48:16;19.90;;;11.60;;
22334;SDS011;11335;43.848;25.958;2022-11-21T05:51:02;22.02;;;12.35;;
22334;SDS011;11335;43.848;25.958;2022-11-21T05:53:48;25.45;;;13.45;;
22334;SDS011;11335;43.848;25.958;2022-11-21T05:56:34;23.88;;;14.55;;
22334;SDS011;11335;43.848;25.958;2022-11-21T05:59:19;23.83;;;13.77;;
22334;SDS011;11335;43.848;25.958;2022-11-21T06:02:05;21.60;;;13.95;;
22334;SDS011;11335;43.848;25.958;2022-11-21T06:05:09;25.60;;;15.52;;
22334;SDS011;11335;43.848;25.958;2022-11-21T06:07:55;24.65;;;14.70;;
22334;SDS011;11335;43.848;25.958;2022-11-21T06:10:40;26.70;;;15.88;;
22334;SDS011;11335;43.848;25.958;2022-11-21T06:13:26;26.15;;;14.60;;
22334;SDS011;11335;43.848;25.958;2022-11-21T06:16:12;22.40;;;13.43;;
22334;SDS011;11335;43.848;25.958;2022-11-21T06:18:58;26.85;;;14.73;;
22334;SDS011;11335;43.848;25.958;2022-11-21T06:21:44;21.20;;;14.23;;
22334;SDS011;11335;43.848;25.958;2022-11-21T06:24:29;22.98;;;13.38;;
22334;SDS011;11335;43.848;25.958;2022-11-21T06:27:15;20.08;;;12.65;;
22334;SDS011;11335;43.848;25.958;2022-11-21T06:30:00;21.42;;;13.18;;
22334;SDS011;11335;43.848;25.958;2022-11-21T06:32:46;23.02;;;13.75;;
22334;SDS011;11335;43.848;25.958;2022-11-21T06:35:35;22.83;;;13.88;;
22334;SDS011;11335;43.848;25.958;2022-11-21T06:38:21;25.05;;;15.27;;
22334;SDS011;11335;43.848;25.958;2022-11-21T06:41:11;27.45;;;15.73;;
22334;SDS011;11335;43.848;25.958;2022-11-21T06:43:59;27.60;;;16.08;;
22334;SDS011;11335;43.848;25.958;2022-11-21T06:46:46;29.30;;;15.73;;
22334;SDS011;11335;43.848;25.958;2022-11-21T06:49:31;25.55;;;15.20;;
22334;SDS011;11335;43.848;25.958;2022-11-21T06:52:17;23.15;;;14.60;;
22334;SDS011;11335;43.848;25.958;2022-11-21T06:55:02;22.55;;;13.95;;
22334;SDS011;11335;43.848;25.958;2022-11-21T06:57:48;19.40;;;13.20;;
22334;SDS011;11335;43.848;25.958;2022-11-21T07:00:33;26.48;;;16.45;;
22334;SDS011;11335;43.848;25.958;2022-11-21T07:03:19;23.15;;;14.98;;
22334;SDS011;11335;43.848;25.958;2022-11-21T07:06:06;24.77;;;14.73;;
22334;SDS011;11335;43.848;25.958;2022-11-21T07:08:52;22.55;;;13.60;;
22334;SDS011;11335;43.848;25.958;2022-11-21T07:11:38;22.02;;;13.77;;
22334;SDS011;11335;43.848;25.958;2022-11-21T07:14:24;20.05;;;13.52;;
22334;SDS011;11335;43.848;25.958;2022-11-21T07:17:10;18.77;;;12.65;;
22334;SDS011;11335;43.848;25.958;2022-11-21T07:19:56;21.30;;;13.80;;
22334;SDS011;11335;43.848;25.958;2022-11-21T07:22:41;23.38;;;15.00;;
22334;SDS011;11335;43.848;25.958;2022-11-21T07:25:27;22.58;;;14.60;;
22334;SDS011;11335;43.848;25.958;2022-11-21T07:28:13;26.10;;;16.52;;
22334;SDS011;11335;43.848;25.958;2022-11-21T07:30:59;27.10;;;15.30;;
22334;SDS011;11335;43.848;25.958;2022-11-21T07:33:45;21.73;;;15.00;;
22334;SDS011;11335;43.848;25.958;2022-11-21T07:36:31;26.80;;;14.48;;
22334;SDS011;11335;43.848;25.958;2022-11-21T07:39:17;23.52;;;14.80;;
22334;SDS011;11335;43.848;25.958;2022-11-21T07:42:03;21.55;;;13.98;;
22334;SDS011;11335;43.848;25.958;2022-11-21T07:44:49;26.38;;;16.83;;
22334;SDS011;11335;43.848;25.958;2022-11-21T07:47:34;32.00;;;18.40;;
22334;SDS011;11335;43.848;25.958;2022-11-21T07:50:20;32.38;;;19.27;;
22334;SDS011;11335;43.848;25.958;2022-11-21T07:53:06;34.85;;;20.85;;
22334;SDS011;11335;43.848;25.958;2022-11-21T07:55:52;42.53;;;20.63;;
22334;SDS011;11335;43.848;25.958;2022-11-21T07:58:38;36.40;;;19.98;;
22334;SDS011;11335;43.848;25.958;2022-11-21T08:01:24;47.08;;;25.45;;
22334;SDS011;11335;43.848;25.958;2022-11-21T08:04:10;39.42;;;22.65;;
22334;SDS011;11335;43.848;25.958;2022-11-21T08:06:56;38.28;;;21.50;;
22334;SDS011;11335;43.848;25.958;2022-11-21T08:09:41;40.38;;;22.05;;
22334;SDS011;11335;43.848;25.958;2022-11-21T08:12:28;54.97;;;30.35;;
22334;SDS011;11335;43.848;25.958;2022-11-21T08:15:13;34.22;;;19.45;;
22334;SDS011;11335;43.848;25.958;2022-11-21T08:18:05;25.50;;;16.08;;
22334;SDS011;11335;43.848;25.958;2022-11-21T08:20:51;24.15;;;14.65;;
22334;SDS011;11335;43.848;25.958;2022-11-21T08:23:37;22.20;;;15.10;;
22334;SDS011;11335;43.848;25.958;2022-11-21T08:26:22;21.67;;;14.82;;
22334;SDS011;11335;43.848;25.958;2022-11-21T08:29:08;26.27;;;15.68;;
22334;SDS011;11335;43.848;25.958;2022-11-21T08:31:54;22.80;;;14.73;;
22334;SDS011;11335;43.848;25.958;2022-11-21T08:34:39;26.73;;;15.00;;
22334;SDS011;11335;43.848;25.958;2022-11-21T08:37:28;26.33;;;14.95;;
22334;SDS011;11335;43.848;25.958;2022-11-21T08:40:14;23.60;;;14.88;;
22334;SDS011;11335;43.848;25.958;2022-11-21T08:45:45;24.50;;;15.70;;
22334;SDS011;11335;43.848;25.958;2022-11-21T08:48:30;26.00;;;17.27;;
22334;SDS011;11335;43.848;25.958;2022-11-21T08:51:16;32.00;;;18.50;;
22334;SDS011;11335;43.848;25.958;2022-11-21T08:54:02;32.88;;;20.80;;
22334;SDS011;11335;43.848;25.958;2022-11-21T08:56:48;29.27;;;17.13;;
22334;SDS011;11335;43.848;25.958;2022-11-21T08:59:33;27.73;;;16.80;;
22334;SDS011;11335;43.848;25.958;2022-11-21T09:02:19;24.88;;;16.88;;
22334;SDS011;11335;43.848;25.958;2022-11-21T09:05:05;26.83;;;17.73;;
22334;SDS011;11335;43.848;25.958;2022-11-21T09:07:57;26.58;;;16.20;;
22334;SDS011;11335;43.848;25.958;2022-11-21T09:10:42;27.20;;;17.10;;
22334;SDS011;11335;43.848;25.958;2022-11-21T09:13:28;29.27;;;18.35;;
22334;SDS011;11335;43.848;25.958;2022-11-21T09:16:14;31.80;;;17.77;;
22334;SDS011;11335;43.848;25.958;2022-11-21T09:19:18;33.63;;;18.55;;
22334;SDS011;11335;43.848;25.958;2022-11-21T09:22:05;28.17;;;17.92;;
22334;SDS011;11335;43.848;25.958;2022-11-21T09:24:50;27.85;;;17.52;;
22334;SDS011;11335;43.848;25.958;2022-11-21T09:27:36;29.40;;;17.77;;
22334;SDS011;11335;43.848;25.958;2022-11-21T09:30:22;30.15;;;16.80;;
22334;SDS011;11335;43.848;25.958;2022-11-21T09:33:11;42.65;;;23.58;;
22334;SDS011;11335;43.848;25.958;2022-11-21T09:35:57;37.13;;;22.00;;
22334;SDS011;11335;43.848;25.958;2022-11-21T09:38:43;34.88;;;20.30;;
22334;SDS011;11335;43.848;25.958;2022-11-21T09:53:05;35.67;;;20.42;;
22334;SDS011;11335;43.848;25.958;2022-11-21T09:55:57;31.85;;;19.60;;
22334;SDS011;11335;43.848;25.958;2022-11-21T10:01:35;37.08;;;21.17;;
22334;SDS011;11335;43.848;25.958;2022-11-21T10:04:21;41.78;;;22.23;;
22334;SDS011;11335;43.848;25.958;2022-11-21T10:07:10;38.85;;;23.42;;
22334;SDS011;11335;43.848;25.958;2022-11-21T10:19:05;41.72;;;23.50;;
22334;SDS011;11335;43.848;25.958;2022-11-21T10:24:39;44.60;;;24.88;;
22334;SDS011;11335;43.848;25.958;2022-11-21T10:30:14;18.27;;;12.20;;
22334;SDS011;11335;43.848;25.958;2022-11-21T10:33:02;10.93;;;8.10;;
22334;SDS011;11335;43.848;25.958;2022-11-21T10:35:52;9.10;;;7.85;;
22334;SDS011;11335;43.848;25.958;2022-11-21T10:38:40;9.13;;;7.72;;
22334;SDS011;11335;43.848;25.958;2022-11-21T10:47:21;9.27;;;7.32;;
22334;SDS011;11335;43.848;25.958;2022-11-21T10:53:25;7.30;;;5.95;;
22334;SDS011;11335;43.848;25.958;2022-11-21T10:56:29;5.63;;;5.10;;
22334;SDS011;11335;43.848;25.958;2022-11-21T10:59:20;5.63;;;5.07;;
22334;SDS011;11335;43.848;25.958;2022-11-21T11:11:09;6.65;;;4.70;;
22334;SDS011;11335;43.848;25.958;2022-11-21T11:13:58;8.63;;;6.45;;
22334;SDS011;11335;43.848;25.958;2022-11-21T11:16:45;5.43;;;4.80;;
22334;SDS011;11335;43.848;25.958;2022-11-21T11:19:31;7.80;;;6.97;;
22334;SDS011;11335;43.848;25.958;2022-11-21T11:22:26;6.75;;;5.53;;
22334;SDS011;11335;43.848;25.958;2022-11-21T11:25:13;8.43;;;5.82;;
22334;SDS011;11335;43.848;25.958;2022-11-21T11:27:59;8.80;;;7.70;;
22334;SDS011;11335;43.848;25.958;2022-11-21T11:30:50;7.57;;;4.32;;
22334;SDS011;11335;43.848;25.958;2022-11-21T11:33:37;9.07;;;7.32;;
22334;SDS011;11335;43.848;25.958;2022-11-21T11:36:35;6.03;;;4.80;;
22334;SDS011;11335;43.848;25.958;2022-11-21T11:45:47;5.45;;;4.95;;
22334;SDS011;11335;43.848;25.958;2022-11-21T11:48:52;6.05;;;5.43;;
22334;SDS011;11335;43.848;25.958;2022-11-21T11:51:41;5.80;;;5.20;;
22334;SDS011;11335;43.848;25.958;2022-11-21T11:54:30;9.60;;;7.40;;
22334;SDS011;11335;43.848;25.958;2022-11-21T11:57:16;9.40;;;7.20;;
22334;SDS011;11335;43.848;25.958;2022-11-21T12:05:34;6.65;;;4.63;;
22334;SDS011;11335;43.848;25.958;2022-11-21T12:09:10;5.85;;;4.70;;
22334;SDS011;11335;43.848;25.958;2022-11-21T12:21:13;5.60;;;4.32;;
22334;SDS011;11335;43.848;25.958;2022-11-21T12:24:01;4.68;;;3.85;;
22334;SDS011;11335;43.848;25.958;2022-11-21T12:26:55;3.78;;;3.10;;
22334;SDS011;11335;43.848;25.958;2022-11-21T12:29:54;4.00;;;3.60;;
22334;SDS011;11335;43.848;25.958;2022-11-21T12:35:38;3.60;;;2.58;;
22334;SDS011;11335;43.848;25.958;2022-11-21T12:44:44;2.08;;;1.88;;
22334;SDS011;11335;43.848;25.958;2022-11-21T12:47:46;2.40;;;2.20;;
22334;SDS011;11335;43.848;25.958;2022-11-21T12:57:15;2.90;;;2.42;;
22334;SDS011;11335;43.848;25.958;2022-11-21T13:00:11;3.50;;;2.50;;
22334;SDS011;11335;43.848;25.958;2022-11-21T13:05:48;4.68;;;2.65;;
22334;SDS011;11335;43.848;25.958;2022-11-21T13:08:36;3.80;;;3.20;;
22334;SDS011;11335;43.848;25.958;2022-11-21T13:11:40;5.28;;;3.53;;
22334;SDS011;11335;43.848;25.958;2022-11-21T13:23:33;22.20;;;14.32;;
22334;SDS011;11335;43.848;25.958;2022-11-21T13:29:13;7.38;;;4.28;;
22334;SDS011;11335;43.848;25.958;2022-11-21T13:32:02;5.78;;;4.60;;
22334;SDS011;11335;43.848;25.958;2022-11-21T13:38:05;3.97;;;3.58;;
22334;SDS011;11335;43.848;25.958;2022-11-21T13:40:50;4.35;;;3.95;;
22334;SDS011;11335;43.848;25.958;2022-11-21T13:44:27;3.80;;;3.42;;
22334;SDS011;11335;43.848;25.958;2022-11-21T13:50:12;3.58;;;3.20;;
22334;SDS011;11335;43.848;25.958;2022-11-21T13:53:15;4.07;;;3.28;;
22334;SDS011;11335;43.848;25.958;2022-11-21T14:13:15;2.83;;;2.30;;
22334;SDS011;11335;43.848;25.958;2022-11-21T14:19:25;4.72;;;2.50;;
22334;SDS011;11335;43.848;25.958;2022-11-21T14:22:15;4.50;;;2.08;;
22334;SDS011;11335;43.848;25.958;2022-11-21T14:25:04;5.93;;;3.88;;
22334;SDS011;11335;43.848;25.958;2022-11-21T14:27:52;3.05;;;2.40;;
22334;SDS011;11335;43.848;25.958;2022-11-21T14:30:40;3.70;;;2.47;;
22334;SDS011;11335;43.848;25.958;2022-11-21T14:33:32;3.80;;;2.70;;
22334;SDS011;11335;43.848;25.958;2022-11-21T14:39:07;4.60;;;3.08;;
22334;SDS011;11335;43.848;25.958;2022-11-21T14:41:54;3.92;;;2.95;;
22334;SDS011;11335;43.848;25.958;2022-11-21T14:44:40;2.58;;;2.30;;
22334;SDS011;11335;43.848;25.958;2022-11-21T14:47:26;6.05;;;2.88;;
22334;SDS011;11335;43.848;25.958;2022-11-21T14:50:20;5.47;;;2.90;;
22334;SDS011;11335;43.848;25.958;2022-11-21T14:53:09;3.97;;;3.00;;
22334;SDS011;11335;43.848;25.958;2022-11-21T14:55:56;7.50;;;3.00;;
22334;SDS011;11335;43.848;25.958;2022-11-21T14:58:41;3.03;;;2.60;;
22334;SDS011;11335;43.848;25.958;2022-11-21T15:01:28;3.28;;;2.85;;
22334;SDS011;11335;43.848;25.958;2022-11-21T15:04:14;3.75;;;2.67;;
22334;SDS011;11335;43.848;25.958;2022-11-21T15:06:59;4.82;;;3.03;;
22334;SDS011;11335;43.848;25.958;2022-11-21T15:09:45;6.10;;;4.50;;
22334;SDS011;11335;43.848;25.958;2022-11-21T15:12:32;6.60;;;3.70;;
22334;SDS011;11335;43.848;25.958;2022-11-21T15:18:13;4.80;;;3.80;;
22334;SDS011;11335;43.848;25.958;2022-11-21T15:21:00;5.03;;;3.03;;
22334;SDS011;11335;43.848;25.958;2022-11-21T15:23:47;4.38;;;3.22;;
22334;SDS011;11335;43.848;25.958;2022-11-21T15:26:33;5.93;;;3.55;;
22334;SDS011;11335;43.848;25.958;2022-11-21T15:29:20;4.45;;;3.47;;
22334;SDS011;11335;43.848;25.958;2022-11-21T15:32:07;4.30;;;3.38;;
22334;SDS011;11335;43.848;25.958;2022-11-21T15:34:52;4.97;;;3.28;;
22334;SDS011;11335;43.848;25.958;2022-11-21T15:37:46;6.18;;;3.63;;
22334;SDS011;11335;43.848;25.958;2022-11-21T15:40:32;3.70;;;3.05;;
22334;SDS011;11335;43.848;25.958;2022-11-21T15:43:31;6.28;;;3.90;;
22334;SDS011;11335;43.848;25.958;2022-11-21T15:49:09;5.65;;;4.47;;
22334;SDS011;11335;43.848;25.958;2022-11-21T15:51:55;6.78;;;3.70;;
22334;SDS011;11335;43.848;25.958;2022-11-21T15:54:40;5.85;;;3.90;;
22334;SDS011;11335;43.848;25.958;2022-11-21T15:57:26;8.90;;;5.15;;
22334;SDS011;11335;43.848;25.958;2022-11-21T16:00:12;19.52;;;7.35;;
22334;SDS011;11335;43.848;25.958;2022-11-21T16:02:57;28.77;;;13.13;;
22334;SDS011;11335;43.848;25.958;2022-11-21T16:05:43;5.20;;;3.75;;
22334;SDS011;11335;43.848;25.958;2022-11-21T16:08:28;6.63;;;3.60;;
22334;SDS011;11335;43.848;25.958;2022-11-21T16:11:24;4.88;;;3.65;;
22334;SDS011;11335;43.848;25.958;2022-11-21T16:14:14;5.43;;;3.58;;
22334;SDS011;11335;43.848;25.958;2022-11-21T16:17:00;5.85;;;3.65;;
22334;SDS011;11335;43.848;25.958;2022-11-21T16:19:45;5.55;;;3.40;;
22334;SDS011;11335;43.848;25.958;2022-11-21T16:22:31;4.03;;;3.13;;
22334;SDS011;11335;43.848;25.958;2022-11-21T16:25:16;3.10;;;2.70;;
22334;SDS011;11335;43.848;25.958;2022-11-21T16:28:02;5.70;;;3.33;;
22334;SDS011;11335;43.848;25.958;2022-11-21T16:30:48;3.75;;;3.00;;
22334;SDS011;11335;43.848;25.958;2022-11-21T16:33:33;4.15;;;3.35;;
22334;SDS011;11335;43.848;25.958;2022-11-21T16:36:26;4.47;;;3.58;;
22334;SDS011;11335;43.848;25.958;2022-11-21T16:39:12;4.35;;;3.58;;
22334;SDS011;11335;43.848;25.958;2022-11-21T16:41:57;5.40;;;3.72;;
22334;SDS011;11335;43.848;25.958;2022-11-21T16:44:43;5.75;;;3.83;;
22334;SDS011;11335;43.848;25.958;2022-11-21T16:47:29;4.57;;;3.90;;
22334;SDS011;11335;43.848;25.958;2022-11-21T16:50:15;5.95;;;3.05;;
22334;SDS011;11335;43.848;25.958;2022-11-21T16:53:00;4.85;;;3.22;;
22334;SDS011;11335;43.848;25.958;2022-11-21T16:55:46;5.75;;;3.60;;
22334;SDS011;11335;43.848;25.958;2022-11-21T16:58:32;4.30;;;3.40;;
22334;SDS011;11335;43.848;25.958;2022-11-21T17:01:18;5.95;;;4.00;;
22334;SDS011;11335;43.848;25.958;2022-11-21T17:04:04;5.43;;;3.70;;
22334;SDS011;11335;43.848;25.958;2022-11-21T17:06:49;6.30;;;3.60;;
22334;SDS011;11335;43.848;25.958;2022-11-21T17:09:35;3.90;;;3.00;;
22334;SDS011;11335;43.848;25.958;2022-11-21T17:12:21;4.63;;;3.50;;
22334;SDS011;11335;43.848;25.958;2022-11-21T17:15:09;5.80;;;4.32;;
22334;SDS011;11335;43.848;25.958;2022-11-21T17:17:55;5.53;;;4.05;;
22334;SDS011;11335;43.848;25.958;2022-11-21T17:20:45;7.05;;;3.70;;
22334;SDS011;11335;43.848;25.958;2022-11-21T17:23:31;7.97;;;3.80;;
22334;SDS011;11335;43.848;25.958;2022-11-21T17:26:18;5.53;;;3.85;;
22334;SDS011;11335;43.848;25.958;2022-11-21T17:29:04;6.80;;;4.47;;
22334;SDS011;11335;43.848;25.958;2022-11-21T17:31:49;5.93;;;4.45;;
22334;SDS011;11335;43.848;25.958;2022-11-21T17:34:36;7.13;;;5.20;;
22334;SDS011;11335;43.848;25.958;2022-11-21T17:37:21;5.65;;;4.43;;
22334;SDS011;11335;43.848;25.958;2022-11-21T17:40:08;5.75;;;4.25;;
22334;SDS011;11335;43.848;25.958;2022-11-21T17:42:56;7.88;;;4.90;;
22334;SDS011;11335;43.848;25.958;2022-11-21T17:45:41;7.72;;;4.78;;
22334;SDS011;11335;43.848;25.958;2022-11-21T17:48:27;8.02;;;4.80;;
22334;SDS011;11335;43.848;25.958;2022-11-21T17:51:14;8.95;;;5.00;;
22334;SDS011;11335;43.848;25.958;2022-11-21T17:54:00;6.72;;;4.90;;
22334;SDS011;11335;43.848;25.958;2022-11-21T17:56:45;8.63;;;5.20;;
22334;SDS011;11335;43.848;25.958;2022-11-21T17:59:32;8.35;;;5.80;;
22334;SDS011;11335;43.848;25.958;2022-11-21T18:02:18;8.90;;;6.30;;
22334;SDS011;11335;43.848;25.958;2022-11-21T18:05:05;8.48;;;6.70;;
22334;SDS011;11335;43.848;25.958;2022-11-21T18:07:51;10.25;;;6.95;;
22334;SDS011;11335;43.848;25.958;2022-11-21T18:10:37;11.73;;;7.47;;
22334;SDS011;11335;43.848;25.958;2022-11-21T18:13:22;8.35;;;6.70;;
22334;SDS011;11335;43.848;25.958;2022-11-21T18:16:09;9.18;;;6.57;;
22334;SDS011;11335;43.848;25.958;2022-11-21T18:18:55;9.70;;;6.47;;
22334;SDS011;11335;43.848;25.958;2022-11-21T18:21:41;8.15;;;6.10;;
22334;SDS011;11335;43.848;25.958;2022-11-21T18:24:26;9.48;;;6.85;;
22334;SDS011;11335;43.848;25.958;2022-11-21T18:27:12;8.70;;;6.40;;
22334;SDS011;11335;43.848;25.958;2022-11-21T18:29:58;9.85;;;6.90;;
22334;SDS011;11335;43.848;25.958;2022-11-21T18:32:47;9.82;;;7.10;;
22334;SDS011;11335;43.848;25.958;2022-11-21T18:35:32;10.13;;;7.57;;
22334;SDS011;11335;43.848;25.958;2022-11-21T18:38:18;9.63;;;6.78;;
22334;SDS011;11335;43.848;25.958;2022-11-21T18:41:04;11.15;;;7.57;;
22334;SDS011;11335;43.848;25.958;2022-11-21T18:43:50;12.70;;;8.40;;
22334;SDS011;11335;43.848;25.958;2022-11-21T18:46:36;11.48;;;7.82;;